Time;durP1;ratioP1;P1;durP2;ratioP2;P2;SDS_P1;SDS_P2;PMS_P1;PMS_P2;Temp;Humidity;BMP_temperature;BMP_pressure;BME280_temperature;BME280_humidity;BME280_pressure;Samples;Min_cycle;Max_cycle;Signal;HPM_P1;HPM_P2
2022/10/28 00:00:24;;;;;;;;;10.60;8.40;;;;;19.53;61.61;101043.53;4994430;28;45405;-68
2022/10/28 00:02:49;;;;;;;;;10.00;9.00;;;;;19.70;61.47;101071.22;5009979;28;45345;-68
2022/10/28 00:05:15;;;;;;;;;9.00;8.00;;;;;19.69;61.83;101067.59;4994714;28;45424;-68
2022/10/28 00:07:40;;;;;;;;;11.00;8.25;;;;;19.68;61.72;101065.91;4994448;28;45511;-65
2022/10/28 00:10:06;;;;;;;;;9.25;8.00;;;;;19.66;61.61;101061.72;4994752;28;45953;-68
2022/10/28 00:12:35;;;;;;;;;8.40;8.20;;;;;19.54;61.94;101045.19;4994693;28;45410;-68
2022/10/28 00:15:01;;;;;;;;;9.40;7.00;;;;;19.63;61.85;101057.50;4977014;28;45637;-69
2022/10/28 00:17:26;;;;;;;;;10.75;9.75;;;;;19.67;61.67;101066.19;4993191;28;45343;-69
2022/10/28 00:19:52;;;;;;;;;8.00;7.00;;;;;19.41;61.70;101024.22;4995147;28;45318;-68
2022/10/28 00:22:17;;;;;;;;;10.00;9.00;;;;;19.45;61.64;101042.06;4998182;28;45231;-69
2022/10/28 00:24:43;;;;;;;;;9.00;6.75;;;;;19.62;61.78;101069.75;4998109;28;45505;-69
2022/10/28 00:27:08;;;;;;;;;9.00;7.00;;;;;19.45;62.41;101044.84;4996625;28;45285;-69
2022/10/28 00:29:34;;;;;;;;;8.25;8.00;;;;;19.54;62.13;101057.19;4979605;28;45729;-69
2022/10/28 00:31:59;;;;;;;;;11.25;8.75;;;;;19.38;61.99;101039.50;4996355;28;45869;-69
2022/10/28 00:34:25;;;;;;;;;7.50;7.50;;;;;19.34;62.21;101039.19;4996693;28;45602;-69
2022/10/28 00:36:50;;;;;;;;;8.75;7.75;;;;;19.54;62.12;101064.69;4997579;28;45434;-69
2022/10/28 00:39:20;;;;;;;;;8.00;7.00;;;;;19.53;62.39;101074.97;4997745;28;45443;-69
2022/10/28 00:41:47;;;;;;;;;10.80;8.00;;;;;19.49;62.18;101071.06;5012723;28;45254;-69
2022/10/28 00:44:38;;;;;;;;;6.40;5.20;;;;;19.52;62.48;101067.72;5012517;28;45346;-68
2022/10/28 00:47:04;;;;;;;;;9.20;8.80;;;;;19.51;62.40;101068.84;4996994;28;45464;-69
2022/10/28 00:49:31;;;;;;;;;9.00;8.60;;;;;19.51;62.28;101068.84;4996083;28;45312;-68
2022/10/28 00:52:05;;;;;;;;;8.60;7.60;;;;;19.39;62.45;101051.47;5012050;28;45389;-68
2022/10/28 00:54:31;;;;;;;;;8.60;7.40;;;;;19.49;62.48;101066.31;5012439;28;45357;-68
2022/10/28 00:56:57;;;;;;;;;9.75;9.25;;;;;19.45;62.67;101050.41;4990019;28;46384;-68
2022/10/28 00:59:25;;;;;;;;;7.75;7.75;;;;;19.40;62.56;101047.56;4976530;28;45394;-68
2022/10/28 01:01:51;;;;;;;;;9.20;7.40;;;;;19.36;62.72;101034.19;4976538;28;45516;-68
2022/10/28 01:04:17;;;;;;;;;11.50;7.75;;;;;19.09;62.68;100993.34;4992735;28;45347;-68
2022/10/28 01:06:42;;;;;;;;;7.50;5.50;;;;;19.43;62.57;101050.66;4976290;28;45372;-68
2022/10/28 01:09:08;;;;;;;;;10.50;9.00;;;;;19.42;62.55;101054.56;4975786;28;45398;-68
2022/10/28 01:11:53;;;;;;;;;9.50;8.50;;;;;19.42;62.67;101048.16;4977551;28;45479;-68
2022/10/28 01:14:28;;;;;;;;;12.00;8.00;;;;;19.40;62.60;101055.91;4977427;28;45292;-68
2022/10/28 01:17:09;;;;;;;;;12.20;11.20;;;;;19.37;62.70;101052.56;4975790;28;48468;-67
2022/10/28 01:19:48;;;;;;;;;11.00;9.40;;;;;19.35;62.93;101046.44;4977342;28;45696;-66
2022/10/28 01:22:19;;;;;;;;;9.00;9.00;;;;;19.34;62.81;101057.81;4992407;28;45493;-66
2022/10/28 01:25:19;;;;;;;;;9.00;7.40;;;;;19.32;62.80;101051.69;4944718;28;45494;-66
2022/10/28 01:28:03;;;;;;;;;8.80;8.00;;;;;19.33;62.70;101048.63;4972633;28;45376;-66
2022/10/28 01:30:49;;;;;;;;;10.40;8.40;;;;;19.23;63.15;101040.19;4976206;28;45351;-66
2022/10/28 01:33:25;;;;;;;;;6.80;6.00;;;;;19.20;63.03;101041.56;4961579;28;45358;-65
2022/10/28 01:35:54;;;;;;;;;10.20;6.80;;;;;19.23;62.98;101051.31;4969171;28;45955;-65
2022/10/28 01:38:31;;;;;;;;;7.60;7.20;;;;;19.23;63.58;101046.59;4919652;28;45476;-65
2022/10/28 01:41:22;;;;;;;;;11.20;10.40;;;;;18.95;63.06;100992.88;4983086;28;45439;-65
2022/10/28 01:43:52;;;;;;;;;9.80;9.20;;;;;19.17;63.29;101028.19;4960358;28;45235;-65
2022/10/28 01:46:25;;;;;;;;;12.40;9.00;;;;;19.21;63.24;101036.84;4960129;28;45518;-65
2022/10/28 01:48:56;;;;;;;;;9.60;9.60;;;;;19.22;63.37;101035.75;4959621;28;46538;-64
2022/10/28 01:51:28;;;;;;;;;7.60;7.60;;;;;19.17;63.39;101030.13;4975530;28;45234;-65
2022/10/28 01:53:54;;;;;;;;;8.40;8.40;;;;;19.14;63.53;101025.06;4959967;28;45451;-66
2022/10/28 01:56:29;;;;;;;;;10.20;9.20;;;;;18.57;63.13;100939.09;4959105;28;45522;-65
2022/10/28 01:58:54;;;;;;;;;8.20;8.20;;;;;18.87;63.47;100989.72;4955566;28;46962;-64
2022/10/28 02:01:20;;;;;;;;;11.50;8.00;;;;;19.07;63.65;101015.03;4972006;28;45327;-65
2022/10/28 02:03:46;;;;;;;;;11.50;7.00;;;;;19.09;63.46;101029.50;4971775;28;45252;-64
2022/10/28 02:06:17;;;;;;;;;8.80;8.80;;;;;19.07;63.73;101023.38;4972382;28;45558;-64
2022/10/28 02:09:00;;;;;;;;;9.80;8.00;;;;;18.93;63.61;101003.44;4971534;28;46309;-65
2022/10/28 02:11:49;;;;;;;;;6.80;4.80;;;;;19.08;63.74;101032.53;4971013;28;45505;-65
2022/10/28 02:14:36;;;;;;;;;7.80;6.00;;;;;19.06;63.56;101031.97;4957691;28;45303;-65
2022/10/28 02:17:25;;;;;;;;;10.00;7.60;;;;;18.81;63.44;100995.25;4957170;28;45455;-63
2022/10/28 02:19:51;;;;;;;;;10.40;10.00;;;;;19.04;63.48;101026.66;4956812;28;45434;-65
2022/10/28 02:22:23;;;;;;;;;8.25;6.25;;;;;19.02;63.78;101014.97;4956798;28;45352;-64
2022/10/28 02:25:07;;;;;;;;;9.00;8.00;;;;;19.02;63.35;101017.75;4941559;28;45776;-64
2022/10/28 02:27:38;;;;;;;;;8.20;5.60;;;;;18.77;63.57;100974.63;4976341;28;45323;-65
2022/10/28 02:30:05;;;;;;;;;6.20;6.20;;;;;18.99;63.62;101012.66;4975664;28;46595;-65
2022/10/28 02:32:34;;;;;;;;;9.20;8.40;;;;;18.95;63.76;101011.53;4990466;28;45377;-65
2022/10/28 02:35:01;;;;;;;;;9.00;8.40;;;;;18.79;63.39;100980.75;4974755;28;45441;-65
2022/10/28 02:37:28;;;;;;;;;7.60;6.60;;;;;18.99;63.70;101014.63;4976104;28;45589;-65
2022/10/28 02:39:59;;;;;;;;;11.20;9.80;;;;;18.81;63.69;100986.91;4974733;28;45438;-67
2022/10/28 02:42:30;;;;;;;;;10.40;8.40;;;;;18.97;63.26;101009.31;4973773;28;45360;-67
2022/10/28 02:44:59;;;;;;;;;8.20;7.60;;;;;18.95;63.59;101009.56;4958591;28;45439;-66
2022/10/28 02:47:26;;;;;;;;;8.00;5.80;;;;;18.52;63.43;100942.66;4974953;28;45998;-65
2022/10/28 02:49:56;;;;;;;;;8.00;6.80;;;;;18.91;63.68;101007.56;4958734;28;46167;-66
2022/10/28 02:52:21;;;;;;;;;8.40;7.20;;;;;18.88;63.45;101011.72;4958373;28;45873;-66
2022/10/28 02:54:57;;;;;;;;;7.00;7.00;;;;;18.88;63.70;101010.91;4974385;28;45240;-65
2022/10/28 02:57:38;;;;;;;;;9.60;6.80;;;;;18.68;63.38;100982.59;4970232;28;45843;-67
2022/10/28 03:00:13;;;;;;;;;8.80;8.80;;;;;18.89;63.71;101013.38;4939627;28;46309;-65
2022/10/28 03:02:39;;;;;;;;;9.20;7.20;;;;;18.90;63.36;101017.03;4954833;28;45403;-66
2022/10/28 03:05:04;;;;;;;;;6.75;6.75;;;;;18.87;63.32;101010.03;4954781;28;45367;-66
2022/10/28 03:07:30;;;;;;;;;9.50;8.00;;;;;18.88;63.65;101016.44;4955082;28;45565;-65
2022/10/28 03:09:55;;;;;;;;;8.75;7.00;;;;;18.88;63.73;101010.91;4954574;28;47087;-66
2022/10/28 03:12:21;;;;;;;;;8.00;6.75;;;;;18.80;63.50;100988.00;4954728;28;45267;-66
2022/10/28 03:14:46;;;;;;;;;7.75;7.00;;;;;18.57;63.51;100953.00;4954980;28;45211;-66
2022/10/28 03:17:12;;;;;;;;;7.00;7.00;;;;;18.71;63.57;100972.88;4956333;28;45328;-65
2022/10/28 03:19:37;;;;;;;;;7.50;6.75;;;;;18.80;63.58;100990.75;4956255;28;46144;-65
2022/10/28 03:22:03;;;;;;;;;9.75;8.00;;;;;18.80;63.30;100981.59;4954413;28;45405;-65
2022/10/28 03:24:28;;;;;;;;;9.75;7.50;;;;;18.35;63.72;100920.53;4954835;28;45218;-66
2022/10/28 03:26:56;;;;;;;;;8.25;7.00;;;;;18.75;63.41;100979.63;4956421;28;45325;-66
2022/10/28 03:29:22;;;;;;;;;9.80;7.20;;;;;18.62;63.53;100971.69;4955858;28;46172;-65
2022/10/28 03:31:47;;;;;;;;;8.25;7.00;;;;;18.72;63.77;100979.31;4955590;28;45264;-63
2022/10/28 03:34:12;;;;;;;;;6.25;6.00;;;;;18.72;63.92;100971.78;4955887;28;45314;-65
2022/10/28 03:36:38;;;;;;;;;7.75;6.00;;;;;18.73;63.61;100978.19;4940937;28;45774;-66
2022/10/28 03:39:03;;;;;;;;;7.25;6.25;;;;;18.73;63.58;100975.41;4975284;28;46149;-66
2022/10/28 03:41:29;;;;;;;;;9.00;6.75;;;;;18.72;63.45;100974.56;4975138;28;45416;-65
2022/10/28 03:43:55;;;;;;;;;11.50;6.75;;;;;18.70;63.63;100972.03;4974470;28;45402;-65
2022/10/28 03:46:20;;;;;;;;;10.20;8.40;;;;;18.69;63.69;100967.59;4975512;28;45387;-66
2022/10/28 03:48:46;;;;;;;;;12.75;10.75;;;;;18.67;63.55;100967.00;4975025;28;46298;-66
2022/10/28 03:51:11;;;;;;;;;3.00;3.00;;;;;18.65;63.43;100969.22;4975372;28;45266;-65
2022/10/28 03:53:37;;;;;;;;;8.25;8.25;;;;;18.64;63.74;100969.47;4977532;28;45498;-65
2022/10/28 03:56:02;;;;;;;;;10.00;8.25;;;;;18.44;63.65;100934.78;4978959;28;45385;-66
2022/10/28 03:58:28;;;;;;;;;8.75;8.75;;;;;18.63;63.67;100968.63;4976447;28;47311;-66
2022/10/28 04:00:54;;;;;;;;;9.75;9.75;;;;;18.65;63.74;100969.22;4978798;28;45423;-66
2022/10/28 04:03:20;;;;;;;;;7.25;5.25;;;;;18.61;63.78;100964.44;4978884;28;45415;-66
2022/10/28 04:05:48;;;;;;;;;9.75;7.00;;;;;18.60;63.66;100958.03;4978385;28;45442;-66
2022/10/28 04:08:14;;;;;;;;;11.40;9.20;;;;;18.54;63.37;100957.16;4977069;28;47015;-66
2022/10/28 04:10:40;;;;;;;;;8.00;7.40;;;;;18.57;63.44;100961.31;4977365;28;45315;-66
2022/10/28 04:13:05;;;;;;;;;7.75;7.00;;;;;18.54;63.34;100962.72;4978358;28;45204;-66
2022/10/28 04:15:31;;;;;;;;;6.75;6.75;;;;;18.53;63.58;100957.41;4977499;28;45334;-66
2022/10/28 04:17:57;;;;;;;;;8.25;8.00;;;;;18.46;63.64;100960.38;4960441;28;45983;-64
2022/10/28 04:20:22;;;;;;;;;8.75;8.25;;;;;18.52;63.82;100961.28;4976874;28;45179;-64
2022/10/28 04:22:48;;;;;;;;;6.00;5.75;;;;;18.49;63.75;100962.66;4976743;28;45385;-65
2022/10/28 04:25:14;;;;;;;;;8.25;7.75;;;;;18.49;63.91;100965.44;4978898;28;45139;-65
2022/10/28 04:27:39;;;;;;;;;9.00;7.25;;;;;18.46;63.72;100965.09;4977834;28;46067;-65
2022/10/28 04:30:05;;;;;;;;;8.25;8.00;;;;;18.43;63.88;100960.91;4977930;28;45507;-65
2022/10/28 04:32:31;;;;;;;;;10.60;9.60;;;;;18.35;64.10;100953.84;4976713;28;45389;-65
2022/10/28 04:34:56;;;;;;;;;11.50;9.50;;;;;18.43;63.58;100964.50;4977282;28;45395;-65
2022/10/28 04:37:22;;;;;;;;;7.25;7.25;;;;;18.44;63.87;100968.13;4978033;28;46120;-65
2022/10/28 04:39:47;;;;;;;;;9.25;8.00;;;;;18.43;64.08;100972.03;4977981;28;45479;-65
2022/10/28 04:42:13;;;;;;;;;10.50;9.50;;;;;18.42;63.78;100964.78;4978163;28;45394;-66
2022/10/28 04:44:38;;;;;;;;;8.50;6.75;;;;;18.37;64.04;100956.38;4978181;28;45404;-65
2022/10/28 04:47:04;;;;;;;;;11.50;8.50;;;;;17.79;63.52;100862.31;4976418;28;46259;-65
2022/10/28 04:49:29;;;;;;;;;8.00;7.75;;;;;18.43;63.88;100966.47;4977989;28;45633;-65
2022/10/28 04:51:55;;;;;;;;;8.50;7.50;;;;;17.73;63.87;100847.53;4978062;28;45381;-65
2022/10/28 04:54:20;;;;;;;;;7.50;6.25;;;;;18.18;63.79;100926.16;4978227;28;45411;-65
2022/10/28 04:56:46;;;;;;;;;9.50;9.00;;;;;18.37;63.87;100967.50;4975955;28;45769;-64
2022/10/28 04:59:11;;;;;;;;;9.00;8.00;;;;;18.37;63.62;100967.50;4977563;28;45485;-65
2022/10/28 05:01:37;;;;;;;;;12.25;8.75;;;;;18.20;63.71;100935.06;4977826;28;45390;-66
2022/10/28 05:04:02;;;;;;;;;7.25;7.00;;;;;18.37;63.67;100961.94;4992354;28;45592;-66
2022/10/28 05:06:28;;;;;;;;;8.00;8.00;;;;;18.37;64.00;100961.94;4992474;28;48318;-66
2022/10/28 05:08:53;;;;;;;;;8.75;8.00;;;;;18.16;63.81;100931.13;4977459;28;45350;-65
2022/10/28 05:11:19;;;;;;;;;8.50;6.25;;;;;18.37;63.76;100961.94;4977886;28;45358;-65
2022/10/28 05:13:44;;;;;;;;;7.50;7.50;;;;;18.37;63.84;100961.94;4977470;28;45359;-66
2022/10/28 05:16:10;;;;;;;;;9.00;9.00;;;;;18.34;63.74;100956.88;4992600;28;47898;-63
2022/10/28 05:18:35;;;;;;;;;10.50;8.75;;;;;18.23;63.72;100944.81;4977386;28;45319;-65
2022/10/28 05:21:01;;;;;;;;;9.25;8.00;;;;;18.31;63.81;100962.97;4943706;28;45423;-66
2022/10/28 05:23:26;;;;;;;;;9.50;8.75;;;;;18.31;63.95;100960.19;4977481;28;45516;-65
2022/10/28 05:25:52;;;;;;;;;11.00;9.50;;;;;18.29;64.14;100955.75;4977347;28;46394;-66
2022/10/28 05:28:17;;;;;;;;;9.00;7.00;;;;;17.67;63.72;100868.00;4977124;28;45352;-65
2022/10/28 05:30:43;;;;;;;;;12.75;8.00;;;;;18.25;63.90;100951.78;4952245;28;45339;-66
2022/10/28 05:33:09;;;;;;;;;7.20;7.00;;;;;18.25;64.07;100962.91;4972610;28;45437;-65
2022/10/28 05:35:36;;;;;;;;;6.25;5.50;;;;;17.89;63.82;100906.88;4972815;28;46067;-66
2022/10/28 05:38:01;;;;;;;;;9.80;9.00;;;;;18.21;63.95;100964.53;4975510;28;45318;-65
2022/10/28 05:40:27;;;;;;;;;16.75;10.50;;;;;18.23;64.09;100973.44;4976421;28;45331;-66
2022/10/28 05:42:52;;;;;;;;;10.00;10.00;;;;;18.23;64.01;100958.69;4976997;28;45633;-64
2022/10/28 05:45:18;;;;;;;;;6.00;6.00;;;;;18.23;63.94;100962.34;4976956;28;45905;-64
2022/10/28 05:47:47;;;;;;;;;5.50;5.50;;;;;18.22;63.88;100955.09;4976687;28;45340;-65
2022/10/28 05:50:13;;;;;;;;;15.00;8.00;;;;;18.22;63.91;100963.44;4975915;28;45275;-64
2022/10/28 05:52:39;;;;;;;;;8.80;8.80;;;;;17.92;63.86;100917.47;4977138;28;45291;-65
2022/10/28 05:55:05;;;;;;;;;10.75;7.00;;;;;18.21;63.71;100970.09;4976279;28;45990;-65
2022/10/28 05:57:34;;;;;;;;;8.00;7.75;;;;;18.01;63.73;100943.69;4976771;28;45236;-63
2022/10/28 05:59:59;;;;;;;;;7.80;6.80;;;;;18.18;63.90;100964.22;4976717;28;45273;-66
2022/10/28 06:02:25;;;;;;;;;8.25;7.75;;;;;18.15;63.71;100963.63;4991548;28;45533;-65
2022/10/28 06:04:50;;;;;;;;;7.50;7.00;;;;;18.15;63.66;100968.34;4976800;28;46477;-65
2022/10/28 06:07:16;;;;;;;;;7.25;7.25;;;;;18.13;63.70;100968.59;4976259;28;45447;-65
2022/10/28 06:09:41;;;;;;;;;9.75;6.25;;;;;18.14;63.82;100972.19;4976552;28;45442;-65
2022/10/28 06:12:07;;;;;;;;;8.00;6.75;;;;;17.57;63.74;100882.56;4976429;28;45521;-67
2022/10/28 06:14:33;;;;;;;;;11.00;8.75;;;;;18.04;63.66;100955.38;4976380;28;46435;-63
2022/10/28 06:16:58;;;;;;;;;7.75;7.00;;;;;18.14;63.63;100975.81;4976541;28;45394;-66
2022/10/28 06:19:24;;;;;;;;;8.00;5.25;;;;;18.10;63.70;100974.66;4976113;28;45372;-66
2022/10/28 06:21:49;;;;;;;;;11.75;9.00;;;;;18.13;63.80;100979.72;4991787;28;45416;-65
2022/10/28 06:24:14;;;;;;;;;10.25;7.25;;;;;18.08;63.66;100976.03;4976280;28;45455;-65
2022/10/28 06:26:40;;;;;;;;;12.00;9.25;;;;;18.09;63.80;100986.88;4976439;28;45175;-65
2022/10/28 06:29:05;;;;;;;;;7.25;7.25;;;;;17.89;63.79;100956.84;4975097;28;45305;-64
2022/10/28 06:31:32;;;;;;;;;11.25;7.00;;;;;18.05;63.71;100987.59;4976033;28;45612;-65
2022/10/28 06:33:58;;;;;;;;;12.60;8.00;;;;;17.96;63.46;100976.09;4991201;28;49338;-66
2022/10/28 06:36:23;;;;;;;;;8.75;8.75;;;;;17.80;63.58;100959.22;4975830;28;45228;-66
2022/10/28 06:38:51;;;;;;;;;10.50;9.00;;;;;18.07;63.62;100993.75;4976521;28;45261;-65
2022/10/28 06:41:17;;;;;;;;;10.80;8.80;;;;;18.05;63.58;100996.81;4976551;28;45667;-66
2022/10/28 06:43:42;;;;;;;;;13.25;8.50;;;;;18.07;63.51;101002.09;4975814;28;45366;-66
2022/10/28 06:46:08;;;;;;;;;11.00;9.00;;;;;18.08;63.62;101001.84;4976549;28;45311;-66
2022/10/28 06:48:33;;;;;;;;;9.25;9.00;;;;;17.84;63.50;100962.34;4976093;28;45413;-66
2022/10/28 06:50:59;;;;;;;;;11.00;8.75;;;;;18.07;63.44;101010.44;4976672;28;45400;-65
2022/10/28 06:53:25;;;;;;;;;8.25;8.25;;;;;18.01;63.40;101013.13;4975540;28;45298;-64
2022/10/28 06:55:54;;;;;;;;;10.25;9.50;;;;;17.96;63.50;101010.28;4976116;28;46012;-64
2022/10/28 06:58:19;;;;;;;;;12.60;10.00;;;;;18.03;63.45;101018.41;4969096;28;45388;-64
2022/10/28 07:00:45;;;;;;;;;9.50;8.00;;;;;18.06;63.21;101026.28;4956505;28;45595;-64
2022/10/28 07:03:10;;;;;;;;;11.00;9.00;;;;;18.08;63.37;101031.56;4956257;28;45488;-64
2022/10/28 07:05:36;;;;;;;;;14.25;9.00;;;;;18.07;63.31;101027.94;4956687;28;45375;-64
2022/10/28 07:08:01;;;;;;;;;8.50;7.00;;;;;18.09;63.07;101038.81;4956343;28;45471;-63
2022/10/28 07:10:27;;;;;;;;;12.25;8.75;;;;;18.11;63.00;101042.16;4956685;28;45629;-65
2022/10/28 07:12:52;;;;;;;;;10.25;8.25;;;;;18.08;63.07;101051.03;4955918;28;45375;-64
2022/10/28 07:15:18;;;;;;;;;8.25;7.25;;;;;18.11;63.08;101047.72;4971414;28;45458;-64
2022/10/28 07:17:43;;;;;;;;;12.25;6.00;;;;;18.14;62.67;101050.81;4956068;28;45400;-64
2022/10/28 07:20:10;;;;;;;;;10.75;8.50;;;;;18.12;62.69;101049.38;4955247;28;45387;-64
2022/10/28 07:22:35;;;;;;;;;9.00;8.20;;;;;18.18;62.55;101058.66;4951849;28;46306;-64
2022/10/28 07:25:00;;;;;;;;;8.25;7.75;;;;;18.19;62.36;101055.59;4956742;28;45374;-63
2022/10/28 07:27:26;;;;;;;;;8.25;7.75;;;;;18.23;62.18;101058.72;4974976;28;45363;-63
2022/10/28 07:29:51;;;;;;;;;11.75;9.25;;;;;18.24;62.24;101054.84;4976001;28;45272;-65
2022/10/28 07:32:17;;;;;;;;;9.25;8.25;;;;;18.28;62.18;101065.19;4975372;28;46606;-64
2022/10/28 07:34:42;;;;;;;;;13.50;11.25;;;;;17.96;61.89;101001.94;4974934;28;45392;-65
2022/10/28 07:37:09;;;;;;;;;10.50;9.00;;;;;18.40;61.88;101067.84;4975532;28;45312;-65
2022/10/28 07:39:35;;;;;;;;;13.20;10.00;;;;;18.39;61.98;101068.09;4974385;28;45411;-65
2022/10/28 07:42:00;;;;;;;;;12.50;11.00;;;;;18.42;61.72;101067.59;4975031;28;46043;-65
2022/10/28 07:44:26;;;;;;;;;13.00;12.00;;;;;18.54;61.66;101079.44;4975476;28;45352;-63
2022/10/28 07:46:51;;;;;;;;;11.00;9.25;;;;;18.58;61.36;101079.78;4975038;28;45338;-67
2022/10/28 07:49:17;;;;;;;;;14.00;8.50;;;;;18.63;61.45;101092.88;4923239;28;45499;-69
2022/10/28 07:51:43;;;;;;;;;10.75;9.25;;;;;18.67;61.17;101096.81;4951645;28;47447;-66
2022/10/28 07:54:09;;;;;;;;;6.50;6.50;;;;;18.47;60.93;101052.94;4951272;28;45787;-67
2022/10/28 07:56:35;;;;;;;;;9.75;8.75;;;;;18.76;60.41;101097.22;4984653;28;45450;-66
2022/10/28 07:59:01;;;;;;;;;10.25;9.00;;;;;18.76;60.54;101105.53;4959821;28;45718;-68
2022/10/28 08:01:26;;;;;;;;;10.00;8.75;;;;;18.80;60.83;101101.16;4949984;28;45800;-70
2022/10/28 08:03:52;;;;;;;;;12.25;7.00;;;;;18.89;60.70;101110.72;4951431;28;45424;-69
2022/10/28 08:06:19;;;;;;;;;10.00;10.00;;;;;18.86;60.46;101090.94;4951243;28;45477;-69
2022/10/28 08:08:48;;;;;;;;;12.00;9.60;;;;;18.95;60.43;101119.97;4952507;28;45470;-69
2022/10/28 08:11:15;;;;;;;;;8.20;8.00;;;;;18.96;60.09;101124.44;4952943;28;45538;-64
2022/10/28 08:13:41;;;;;;;;;10.60;10.60;;;;;18.98;59.76;101121.41;4969331;28;45805;-68
2022/10/28 08:16:07;;;;;;;;;13.50;8.75;;;;;18.97;59.92;101120.56;4952780;28;45391;-66
2022/10/28 08:18:36;;;;;;;;;11.75;8.50;;;;;19.01;59.80;101126.44;4970924;28;45510;-66
2022/10/28 08:21:02;;;;;;;;;11.20;9.20;;;;;18.75;59.88;101073.28;4962709;28;46658;-67
2022/10/28 08:23:28;;;;;;;;;11.00;11.00;;;;;19.07;59.38;101142.97;4949815;28;45530;-64
2022/10/28 08:25:53;;;;;;;;;11.00;9.50;;;;;19.07;59.74;101131.84;4920145;28;45677;-67
2022/10/28 08:28:19;;;;;;;;;15.75;11.00;;;;;19.16;59.41;101137.75;4969424;28;45482;-68
2022/10/28 08:30:45;;;;;;;;;9.25;9.00;;;;;19.19;59.00;101153.09;4968229;28;45528;-68
2022/10/28 08:33:11;;;;;;;;;9.25;9.25;;;;;19.20;58.96;101152.00;4951353;28;45768;-70
2022/10/28 08:35:37;;;;;;;;;12.20;11.20;;;;;19.07;59.07;101109.59;4968805;28;45795;-64
2022/10/28 08:38:03;;;;;;;;;12.25;9.50;;;;;19.28;58.96;101142.34;4970239;28;45341;-65
2022/10/28 08:41:01;;;;;;;;;11.40;8.80;;;;;19.25;58.81;101140.09;4971907;28;45500;-66
2022/10/28 08:44:14;;;;;;;;;11.20;8.80;;;;;19.29;58.84;101144.03;4973079;28;45505;-66
2022/10/28 08:46:50;;;;;;;;;13.40;10.80;;;;;19.29;58.64;101146.81;4962839;28;45390;-66
2022/10/28 08:49:17;;;;;;;;;9.00;9.00;;;;;19.35;58.47;101159.69;4959120;28;45543;-63
2022/10/28 08:51:49;;;;;;;;;11.20;11.20;;;;;19.41;58.49;101153.06;4971913;28;47348;-64
2022/10/28 08:54:18;;;;;;;;;10.80;8.60;;;;;19.47;57.99;101157.59;4973538;28;45750;-66
2022/10/28 08:56:47;;;;;;;;;13.20;9.20;;;;;19.50;58.31;101162.66;4971541;28;45570;-62
2022/10/28 08:59:20;;;;;;;;;11.60;9.60;;;;;19.52;57.96;101162.38;4962922;28;45439;-62
2022/10/28 09:01:48;;;;;;;;;12.40;9.00;;;;;19.47;58.13;101163.16;4971874;28;46770;-67
2022/10/28 09:04:28;;;;;;;;;7.00;6.40;;;;;19.55;57.77;101180.50;4971729;28;45602;-66
2022/10/28 09:06:54;;;;;;;;;12.00;10.40;;;;;19.60;58.09;101184.19;4988250;28;45919;-66
2022/10/28 09:09:21;;;;;;;;;11.20;7.20;;;;;19.62;58.08;101175.56;4969809;28;45476;-66
2022/10/28 09:11:59;;;;;;;;;10.00;7.40;;;;;19.49;57.73;101143.41;4939355;28;46263;-65
2022/10/28 09:14:43;;;;;;;;;10.60;9.00;;;;;19.74;57.69;101175.41;4969660;28;45469;-66
2022/10/28 09:17:19;;;;;;;;;12.00;10.80;;;;;19.76;57.05;101178.78;4972486;28;45476;-65
2022/10/28 09:19:49;;;;;;;;;11.20;8.60;;;;;19.78;57.22;101169.03;4951960;28;45577;-64
2022/10/28 09:22:57;;;;;;;;;11.60;8.00;;;;;19.87;57.15;101182.47;4954620;28;46271;-65
2022/10/28 09:25:27;;;;;;;;;9.60;8.80;;;;;19.90;57.02;101181.94;4970658;28;45394;-65
2022/10/28 09:28:02;;;;;;;;;8.60;7.20;;;;;19.74;57.24;101167.06;4971390;28;45835;-65
2022/10/28 09:31:10;;;;;;;;;11.80;7.80;;;;;19.99;57.44;101205.47;4963364;28;45581;-62
2022/10/28 09:34:09;;;;;;;;;9.00;8.40;;;;;20.07;57.46;101206.94;4945315;28;45847;-62
2022/10/28 09:36:50;;;;;;;;;12.40;9.80;;;;;20.15;57.07;101225.09;4951685;28;45521;-62
2022/10/28 09:39:18;;;;;;;;;13.20;10.20;;;;;20.20;57.66;101213.16;4964649;28;45927;-60
2022/10/28 09:41:44;;;;;;;;;14.20;8.80;;;;;20.25;56.35;101229.94;4970642;28;45777;-62
2022/10/28 09:44:14;;;;;;;;;13.20;9.00;;;;;20.30;56.66;101232.75;4971116;28;47299;-62
2022/10/28 09:46:40;;;;;;;;;8.60;6.00;;;;;20.37;56.13;101238.94;4964978;28;46082;-66
2022/10/28 09:49:13;;;;;;;;;11.25;9.75;;;;;20.39;56.30;101220.00;4944648;28;45976;-66
2022/10/28 09:51:54;;;;;;;;;12.60;10.00;;;;;20.51;56.22;101247.72;4969222;28;45410;-61
2022/10/28 09:54:25;;;;;;;;;8.40;7.80;;;;;20.49;56.69;101224.00;4979450;28;45562;-60
2022/10/28 09:56:51;;;;;;;;;10.40;10.00;;;;;20.42;56.01;101207.47;4975788;28;45838;-61
2022/10/28 09:59:16;;;;;;;;;8.25;6.25;;;;;20.55;56.60;101204.22;4994270;28;45439;-64
2022/10/28 10:01:46;;;;;;;;;9.75;8.25;;;;;20.60;56.57;101192.28;4975822;28;45571;-63
2022/10/28 10:04:22;;;;;;;;;6.80;6.80;;;;;20.72;56.58;101211.59;4979080;28;46388;-62
2022/10/28 10:07:09;;;;;;;;;15.00;10.80;;;;;20.81;56.11;101217.53;4992005;28;45512;-61
2022/10/28 10:09:35;;;;;;;;;11.00;9.80;;;;;20.84;56.01;101226.22;4969203;28;45531;-65
2022/10/28 10:12:07;;;;;;;;;9.50;9.00;;;;;20.88;56.70;101234.88;4973917;28;45570;-61
2022/10/28 10:14:39;;;;;;;;;11.00;9.60;;;;;20.91;56.44;101239.09;4993178;28;45856;-61
2022/10/28 10:17:11;;;;;;;;;11.60;11.00;;;;;20.89;55.94;101239.34;4993496;28;45373;-62
2022/10/28 10:19:59;;;;;;;;;10.20;9.40;;;;;20.89;56.13;101249.66;4976820;28;45294;-62
2022/10/28 10:22:32;;;;;;;;;12.00;10.20;;;;;20.93;56.16;101242.44;4986263;28;45419;-60
2022/10/28 10:24:58;;;;;;;;;11.60;7.80;;;;;20.96;56.19;101253.91;4994480;28;45973;-65
2022/10/28 10:27:24;;;;;;;;;12.50;10.00;;;;;21.01;56.23;101255.88;4993015;28;45659;-61
2022/10/28 10:29:50;;;;;;;;;13.00;10.20;;;;;21.01;56.08;101249.47;4973229;28;45407;-63
2022/10/28 10:32:32;;;;;;;;;11.00;9.60;;;;;21.02;56.08;101231.59;4980295;28;45660;-62
2022/10/28 10:35:00;;;;;;;;;13.00;11.40;;;;;21.21;55.82;101249.56;4960352;28;45628;-63
2022/10/28 10:37:26;;;;;;;;;13.80;9.60;;;;;21.25;55.27;101238.69;4998413;28;45383;-62
2022/10/28 10:40:03;;;;;;;;;10.50;8.00;;;;;21.60;54.92;101245.50;4976701;28;45494;-62
2022/10/28 10:42:28;;;;;;;;;6.80;6.80;;;;;21.94;54.33;101255.41;4993818;28;45426;-63
2022/10/28 10:45:19;;;;;;;;;10.50;6.75;;;;;22.45;53.53;101254.59;4975311;28;47356;-64
2022/10/28 10:47:47;;;;;;;;;13.60;9.80;;;;;23.47;51.24;101259.44;4995226;28;45315;-61
2022/10/28 10:50:27;;;;;;;;;8.80;8.80;;;;;23.02;51.58;101262.09;4994729;28;45892;-66
2022/10/28 10:52:54;;;;;;;;;10.20;7.60;;;;;22.72;52.02;101269.44;4994443;28;45379;-61
2022/10/28 10:55:33;;;;;;;;;10.00;8.80;;;;;22.49;52.94;101277.25;4994674;28;45438;-61
2022/10/28 10:57:58;;;;;;;;;13.60;10.80;;;;;22.38;53.40;101284.81;4993009;28;46136;-63
2022/10/28 11:00:34;;;;;;;;;9.75;7.75;;;;;22.31;54.13;101285.06;4977117;28;45258;-61
2022/10/28 11:03:00;;;;;;;;;9.20;7.60;;;;;22.23;53.48;101262.41;4973757;28;45382;-64
2022/10/28 11:05:25;;;;;;;;;8.25;7.25;;;;;22.27;54.04;101278.38;4979044;28;46107;-65
2022/10/28 11:07:51;;;;;;;;;7.00;7.00;;;;;22.32;54.00;101288.72;4982439;28;45464;-65
2022/10/28 11:10:27;;;;;;;;;9.25;8.50;;;;;22.33;54.33;101285.66;4990117;28;45481;-72
2022/10/28 11:12:54;;;;;;;;;10.20;8.40;;;;;22.32;53.77;101288.72;4965335;28;45601;-64
2022/10/28 11:15:22;;;;;;;;;9.60;8.20;;;;;22.37;53.82;101296.25;4968976;28;45938;-66
2022/10/28 11:18:15;;;;;;;;;9.20;8.20;;;;;22.29;54.35;101289.25;4970010;28;45785;-64
2022/10/28 11:20:47;;;;;;;;;7.60;7.60;;;;;22.33;54.23;101304.38;4969688;28;45457;-62
2022/10/28 11:23:15;;;;;;;;;13.20;9.00;;;;;22.37;54.88;101313.88;4971759;28;45392;-62
2022/10/28 11:25:42;;;;;;;;;13.20;11.20;;;;;22.38;54.30;101301.59;4974172;28;46678;-65
2022/10/28 11:28:21;;;;;;;;;16.40;12.40;;;;;22.56;53.69;101308.59;4953996;28;46047;-65
2022/10/28 11:30:46;;;;;;;;;9.00;9.00;;;;;22.61;54.22;101302.16;4970105;28;45440;-66